Time;durP1;ratioP1;P1;durP2;ratioP2;P2;SDS_P1;SDS_P2;PMS_P1;PMS_P2;Temp;Humidity;BMP_temperature;BMP_pressure;BME280_temperature;BME280_humidity;BME280_pressure;Samples;Min_cycle;Max_cycle;Signal;HPM_P1;HPM_P2
2024/01/21 00:01:29;;;;;;;4.10;3.03;;;20.10;26.20;;;;;;5095162;28;20410;-56
2024/01/21 00:03:55;;;;;;;4.70;3.25;;;20.10;26.20;;;;;;5113820;28;20039;-57
2024/01/21 00:06:21;;;;;;;4.25;3.15;;;20.10;26.20;;;;;;5112326;28;20023;-58
2024/01/21 00:08:47;;;;;;;4.85;3.22;;;20.00;26.20;;;;;;5112972;28;20414;-54
2024/01/21 00:11:13;;;;;;;3.53;2.95;;;20.00;26.20;;;;;;5094914;28;20132;-55
2024/01/21 00:13:39;;;;;;;4.35;2.85;;;20.00;26.20;;;;;;5112921;28;20377;-59
2024/01/21 00:16:05;;;;;;;3.67;2.72;;;20.00;26.20;;;;;;5113863;28;20019;-58
2024/01/21 00:18:31;;;;;;;5.40;2.97;;;19.90;26.20;;;;;;5112612;28;20031;-60
2024/01/21 00:20:57;;;;;;;3.45;2.72;;;19.90;26.20;;;;;;5112793;28;20023;-58
2024/01/21 00:23:23;;;;;;;3.25;2.70;;;20.00;26.30;;;;;;5111219;28;20058;-57
2024/01/21 00:25:49;;;;;;;3.83;3.08;;;20.00;26.30;;;;;;5112708;28;20019;-56
2024/01/21 00:28:14;;;;;;;4.00;3.00;;;19.90;26.20;;;;;;5113543;28;20402;-57
2024/01/21 00:30:40;;;;;;;4.35;2.80;;;19.90;26.20;;;;;;5113454;28;20024;-59
2024/01/21 00:33:06;;;;;;;3.95;2.80;;;19.90;26.20;;;;;;5113847;28;20023;-58
2024/01/21 00:35:32;;;;;;;3.60;2.60;;;19.90;26.30;;;;;;5113862;28;20027;-57
2024/01/21 00:37:57;;;;;;;4.20;3.10;;;19.90;26.30;;;;;;5112876;28;20069;-58
2024/01/21 00:40:23;;;;;;;4.03;2.60;;;19.90;26.80;;;;;;5113484;28;20065;-59
2024/01/21 00:42:49;;;;;;;3.97;2.72;;;19.90;26.30;;;;;;5112634;28;20031;-57
2024/01/21 00:45:15;;;;;;;4.57;3.08;;;19.80;26.20;;;;;;5113255;28;20170;-56
2024/01/21 00:47:41;;;;;;;4.20;3.08;;;19.80;26.20;;;;;;5113116;28;20439;-56
2024/01/21 00:50:07;;;;;;;3.47;2.80;;;19.80;26.20;;;;;;5113906;28;20027;-56
2024/01/21 00:52:33;;;;;;;3.50;2.70;;;19.80;26.30;;;;;;5112343;28;20114;-56
2024/01/21 00:54:59;;;;;;;3.50;2.67;;;19.80;26.30;;;;;;5113210;28;20024;-59
2024/01/21 00:57:25;;;;;;;3.25;2.70;;;19.80;26.30;;;;;;5113185;28;20572;-56
2024/01/21 00:59:50;;;;;;;5.40;2.60;;;19.80;26.30;;;;;;5112924;28;20023;-54
2024/01/21 01:02:16;;;;;;;3.25;2.30;;;19.80;26.30;;;;;;5112328;28;20039;-54
2024/01/21 01:04:42;;;;;;;3.40;2.53;;;19.80;26.30;;;;;;5112923;28;20176;-59
2024/01/21 01:07:08;;;;;;;4.10;2.67;;;19.70;26.20;;;;;;5116818;28;20415;-58
2024/01/21 01:09:33;;;;;;;3.78;2.55;;;19.70;26.20;;;;;;5116816;28;20027;-56
2024/01/21 01:11:59;;;;;;;2.95;2.25;;;19.70;26.20;;;;;;5116748;28;20113;-55
2024/01/21 01:14:25;;;;;;;3.10;2.22;;;19.70;26.20;;;;;;5115104;28;20030;-55
2024/01/21 01:16:51;;;;;;;3.15;2.60;;;19.70;26.20;;;;;;5098546;28;20039;-57
2024/01/21 01:19:16;;;;;;;3.58;2.78;;;19.70;26.20;;;;;;5116028;28;20026;-58
2024/01/21 01:21:42;;;;;;;2.95;2.33;;;19.70;26.20;;;;;;5117713;28;20339;-58
2024/01/21 01:24:08;;;;;;;2.97;2.13;;;19.60;26.10;;;;;;5115992;28;20031;-55
2024/01/21 01:26:34;;;;;;;2.47;2.08;;;19.70;26.20;;;;;;5116751;28;20024;-53
2024/01/21 01:28:59;;;;;;;3.65;2.50;;;19.60;26.10;;;;;;5116974;28;20139;-56
2024/01/21 01:31:25;;;;;;;2.70;2.20;;;19.60;26.10;;;;;;5116825;28;20030;-54
2024/01/21 01:33:51;;;;;;;3.13;2.20;;;19.60;26.10;;;;;;5116875;28;20110;-58
2024/01/21 01:36:17;;;;;;;3.75;2.40;;;19.60;26.10;;;;;;5116762;28;20039;-58
2024/01/21 01:38:44;;;;;;;2.60;2.17;;;19.70;26.20;;;;;;5113328;28;20353;-59
2024/01/21 01:41:10;;;;;;;4.03;2.50;;;19.60;26.10;;;;;;5115129;28;20043;-55
2024/01/21 01:43:35;;;;;;;3.63;2.58;;;19.60;26.10;;;;;;5116132;28;20036;-60
2024/01/21 01:46:02;;;;;;;2.35;2.00;;;19.50;26.10;;;;;;5115893;28;20035;-55
2024/01/21 01:48:30;;;;;;;2.95;1.92;;;19.50;26.10;;;;;;5116354;28;21257;-55
2024/01/21 01:50:58;;;;;;;2.88;2.25;;;19.50;26.10;;;;;;5097603;28;20051;-53
2024/01/21 01:53:24;;;;;;;2.92;2.35;;;19.50;26.10;;;;;;5113992;28;20408;-57
2024/01/21 01:55:50;;;;;;;2.97;2.10;;;19.50;26.10;;;;;;5114755;28;20051;-55
2024/01/21 01:58:18;;;;;;;2.53;2.08;;;19.50;26.10;;;;;;5116205;28;20058;-57
2024/01/21 02:00:45;;;;;;;2.97;2.25;;;19.50;26.10;;;;;;5115349;28;20065;-58
2024/01/21 02:03:12;;;;;;;3.13;2.20;;;19.50;26.10;;;;;;5116047;28;20346;-57
2024/01/21 02:05:38;;;;;;;3.10;2.30;;;19.50;26.10;;;;;;5116570;28;20035;-56
2024/01/21 02:08:04;;;;;;;2.85;2.10;;;19.50;26.10;;;;;;5115693;28;20046;-56
2024/01/21 02:10:30;;;;;;;3.33;2.28;;;19.50;26.10;;;;;;5115561;28;20428;-58
2024/01/21 02:12:56;;;;;;;3.35;2.35;;;19.50;26.00;;;;;;5115945;28;20030;-57
2024/01/21 02:15:22;;;;;;;3.40;2.00;;;19.50;26.00;;;;;;5115805;28;20102;-55
2024/01/21 02:17:49;;;;;;;3.58;2.40;;;19.50;26.10;;;;;;5115191;28;20106;-58
2024/01/21 02:20:16;;;;;;;3.10;1.92;;;19.40;26.00;;;;;;5115022;28;20042;-56
2024/01/21 02:22:43;;;;;;;2.58;1.88;;;19.40;26.00;;;;;;5114620;28;20507;-58
2024/01/21 02:25:09;;;;;;;2.83;1.95;;;19.40;26.00;;;;;;5115744;28;20051;-57
2024/01/21 02:27:38;;;;;;;2.80;2.00;;;19.40;26.00;;;;;;5115469;28;20110;-58
2024/01/21 02:30:04;;;;;;;3.30;1.92;;;19.40;26.00;;;;;;5114326;28;20491;-57
2024/01/21 02:32:30;;;;;;;2.30;1.80;;;19.40;26.00;;;;;;5114952;28;20040;-55
2024/01/21 02:34:56;;;;;;;2.45;1.80;;;19.40;26.00;;;;;;5115456;28;20028;-57
2024/01/21 02:37:22;;;;;;;3.38;2.03;;;19.40;26.00;;;;;;5114805;28;20039;-60
2024/01/21 02:39:47;;;;;;;3.15;2.20;;;19.40;26.00;;;;;;5114600;28;20104;-56
2024/01/21 02:42:13;;;;;;;3.40;2.00;;;19.40;26.00;;;;;;5115294;28;20031;-58
2024/01/21 02:44:39;;;;;;;2.45;1.85;;;19.40;26.00;;;;;;5115493;28;20039;-57
2024/01/21 02:47:05;;;;;;;2.60;1.98;;;19.40;26.00;;;;;;5114665;28;20036;-57
2024/01/21 02:49:31;;;;;;;2.45;1.70;;;19.40;26.00;;;;;;5115145;28;20377;-56
2024/01/21 02:51:57;;;;;;;2.95;1.90;;;19.30;25.90;;;;;;5114488;28;20089;-55
2024/01/21 02:54:24;;;;;;;2.60;2.03;;;19.30;25.90;;;;;;5114092;28;20334;-58
2024/01/21 02:56:50;;;;;;;2.40;1.85;;;19.30;25.90;;;;;;5114340;28;20059;-57
2024/01/21 02:59:16;;;;;;;2.28;1.90;;;19.30;25.90;;;;;;5114891;28;20023;-54
2024/01/21 03:01:42;;;;;;;2.90;2.00;;;19.30;25.90;;;;;;5115114;28;20035;-56
2024/01/21 03:04:13;;;;;;;2.00;1.60;;;19.30;25.90;;;;;;5114487;28;20117;-56
2024/01/21 03:06:42;;;;;;;2.97;2.20;;;19.30;25.90;;;;;;5113581;28;20023;-56
2024/01/21 03:09:08;;;;;;;2.10;1.60;;;19.30;25.90;;;;;;5114148;28;20057;-54
2024/01/21 03:11:37;;;;;;;2.70;2.10;;;19.30;25.90;;;;;;5114454;28;20450;-55
2024/01/21 03:14:03;;;;;;;2.45;1.80;;;19.30;25.90;;;;;;5114039;28;20065;-56
2024/01/21 03:16:28;;;;;;;2.92;2.15;;;19.30;25.90;;;;;;5114625;28;20107;-56
2024/01/21 03:18:54;;;;;;;2.28;1.75;;;19.30;25.90;;;;;;5114549;28;20024;-58
2024/01/21 03:21:20;;;;;;;2.40;1.75;;;19.30;25.90;;;;;;5114418;28;20023;-52
2024/01/21 03:23:46;;;;;;;2.08;1.88;;;19.20;25.80;;;;;;5114559;28;20039;-57
2024/01/21 03:26:12;;;;;;;2.97;2.20;;;19.20;25.80;;;;;;5114518;28;20054;-55
2024/01/21 03:28:37;;;;;;;2.35;1.98;;;19.20;25.80;;;;;;5113462;28;20375;-54
2024/01/21 03:31:03;;;;;;;2.25;1.92;;;19.20;25.80;;;;;;5114076;28;20038;-54
2024/01/21 03:33:30;;;;;;;2.70;2.20;;;19.20;25.80;;;;;;5114675;28;20027;-56
2024/01/21 03:35:56;;;;;;;2.53;1.88;;;19.20;25.80;;;;;;5114280;28;20020;-56
2024/01/21 03:38:21;;;;;;;2.38;1.90;;;19.20;25.80;;;;;;5114073;28;20409;-58
2024/01/21 03:40:47;;;;;;;1.60;1.30;;;19.10;25.80;;;;;;5111392;28;20039;-58
2024/01/21 03:43:13;;;;;;;2.17;1.70;;;19.20;25.80;;;;;;5113754;28;20028;-56
2024/01/21 03:45:39;;;;;;;2.63;1.83;;;19.10;25.80;;;;;;5114442;28;20048;-52
2024/01/21 03:48:05;;;;;;;2.25;1.70;;;19.10;25.80;;;;;;5113989;28;20055;-57
2024/01/21 03:50:32;;;;;;;2.63;1.83;;;19.10;25.80;;;;;;5114033;28;20088;-57
2024/01/21 03:52:57;;;;;;;2.15;1.60;;;19.10;25.80;;;;;;5113662;28;20028;-57
2024/01/21 03:55:23;;;;;;;2.55;1.88;;;19.10;25.80;;;;;;5114449;28;20054;-56
2024/01/21 03:57:49;;;;;;;2.63;1.65;;;19.10;25.80;;;;;;5113705;28;20455;-56
2024/01/21 04:00:15;;;;;;;2.10;1.90;;;19.10;25.80;;;;;;5114189;28;20454;-57
2024/01/21 04:02:41;;;;;;;2.40;1.75;;;19.10;25.80;;;;;;5113251;28;20347;-56
2024/01/21 04:05:07;;;;;;;2.25;1.75;;;19.10;25.80;;;;;;5113636;28;20019;-58
2024/01/21 04:07:33;;;;;;;2.42;1.55;;;19.10;25.80;;;;;;5114088;28;20504;-56
2024/01/21 04:09:59;;;;;;;1.80;1.50;;;19.10;25.80;;;;;;5113587;28;20119;-55
2024/01/21 04:12:25;;;;;;;2.42;1.70;;;19.10;25.80;;;;;;5113062;28;20098;-55
2024/01/21 04:14:51;;;;;;;2.35;1.50;;;19.10;25.90;;;;;;5113599;28;20131;-58
2024/01/21 04:17:17;;;;;;;2.28;1.77;;;19.10;25.90;;;;;;5113635;28;20069;-54
2024/01/21 04:19:43;;;;;;;2.10;1.63;;;19.10;25.90;;;;;;5113839;28;20048;-58
2024/01/21 04:22:09;;;;;;;2.70;1.90;;;19.10;25.90;;;;;;5112758;28;20149;-56
2024/01/21 04:24:35;;;;;;;2.65;1.83;;;19.10;25.90;;;;;;5113665;28;20530;-59
2024/01/21 04:27:00;;;;;;;4.28;1.77;;;19.10;25.90;;;;;;5114145;28;20054;-57
2024/01/21 04:29:26;;;;;;;2.50;1.85;;;19.00;26.30;;;;;;5113152;28;20023;-57
2024/01/21 04:31:52;;;;;;;1.98;1.67;;;19.00;25.80;;;;;;5095348;28;20369;-56
2024/01/21 04:34:18;;;;;;;2.45;1.60;;;19.00;25.80;;;;;;5113392;28;20088;-57
2024/01/21 04:36:43;;;;;;;1.77;1.45;;;19.00;25.90;;;;;;5112733;28;20019;-53
2024/01/21 04:39:10;;;;;;;2.38;1.77;;;19.00;25.90;;;;;;5112908;28;20035;-54
2024/01/21 04:41:35;;;;;;;1.98;1.50;;;19.00;25.90;;;;;;5093474;28;20134;-58
2024/01/21 04:44:02;;;;;;;2.67;1.92;;;19.00;25.90;;;;;;5091888;28;20471;-57
2024/01/21 04:46:28;;;;;;;2.70;1.70;;;19.00;25.90;;;;;;5092642;28;20048;-57
2024/01/21 04:48:53;;;;;;;2.92;1.58;;;19.00;25.90;;;;;;5093043;28;20054;-53
2024/01/21 04:51:20;;;;;;;2.38;1.60;;;19.00;25.90;;;;;;5092906;28;20341;-55
2024/01/21 04:53:45;;;;;;;2.10;1.60;;;19.00;25.90;;;;;;5092698;28;20047;-55
2024/01/21 04:56:20;;;;;;;2.05;1.70;;;19.00;25.90;;;;;;5092033;28;20024;-57
2024/01/21 04:58:46;;;;;;;2.22;1.73;;;19.00;25.90;;;;;;5090997;28;20099;-58
2024/01/21 05:01:13;;;;;;;1.88;1.52;;;19.00;25.90;;;;;;5092637;28;20602;-56
2024/01/21 05:03:39;;;;;;;2.00;1.42;;;19.00;25.90;;;;;;5092743;28;20043;-56
2024/01/21 05:06:06;;;;;;;1.85;1.38;;;19.00;25.90;;;;;;5091508;28;20432;-55
2024/01/21 05:08:32;;;;;;;2.45;1.58;;;19.00;25.90;;;;;;5092053;28;20036;-55
2024/01/21 05:10:59;;;;;;;1.65;1.30;;;19.10;25.90;;;;;;5092405;28;20038;-57
2024/01/21 05:13:25;;;;;;;1.92;1.42;;;19.10;25.90;;;;;;5093155;28;20035;-54
2024/01/21 05:15:51;;;;;;;1.55;1.40;;;19.10;25.90;;;;;;5091990;28;20024;-58
2024/01/21 05:18:18;;;;;;;1.70;1.40;;;19.10;25.90;;;;;;5092487;28;20027;-56
2024/01/21 05:20:44;;;;;;;1.63;1.40;;;19.10;25.90;;;;;;5090918;28;20343;-56
2024/01/21 05:23:10;;;;;;;2.47;1.73;;;19.10;25.90;;;;;;5092199;28;20047;-57
2024/01/21 05:25:36;;;;;;;2.33;1.42;;;19.10;25.90;;;;;;5091993;28;20401;-58
2024/01/21 05:28:02;;;;;;;2.10;1.60;;;19.10;25.90;;;;;;5074014;28;20039;-57
2024/01/21 05:30:28;;;;;;;2.40;1.60;;;19.10;25.90;;;;;;5092062;28;20036;-57
2024/01/21 05:32:54;;;;;;;2.17;1.60;;;19.10;25.90;;;;;;5091548;28;20058;-57
2024/01/21 05:35:22;;;;;;;2.53;1.50;;;19.10;25.90;;;;;;5092337;28;20031;-58
2024/01/21 05:37:48;;;;;;;1.77;1.35;;;19.10;25.90;;;;;;5091347;28;20089;-55
2024/01/21 05:40:14;;;;;;;1.95;1.40;;;19.10;25.90;;;;;;5070890;28;20051;-55
2024/01/21 05:42:40;;;;;;;2.08;1.40;;;19.10;25.90;;;;;;5092574;28;20024;-56
2024/01/21 05:45:07;;;;;;;2.40;1.50;;;19.10;25.90;;;;;;5092308;28;20038;-52
2024/01/21 05:47:33;;;;;;;1.90;1.40;;;19.10;25.90;;;;;;5091668;28;20357;-59
2024/01/21 05:49:59;;;;;;;1.48;1.25;;;19.10;25.90;;;;;;5091541;28;20452;-58
2024/01/21 05:52:25;;;;;;;2.00;1.30;;;19.10;25.80;;;;;;5092640;28;20097;-52
2024/01/21 05:54:51;;;;;;;2.55;1.60;;;19.10;25.80;;;;;;5095439;28;20044;-55
2024/01/21 05:57:17;;;;;;;1.73;1.30;;;19.10;25.80;;;;;;5094973;28;20035;-59
2024/01/21 05:59:43;;;;;;;2.45;1.20;;;19.10;25.80;;;;;;5095084;28;20024;-56
2024/01/21 06:02:10;;;;;;;2.05;1.40;;;19.10;25.80;;;;;;5077974;28;20032;-56
2024/01/21 06:04:37;;;;;;;1.83;1.25;;;19.10;25.80;;;;;;5094295;28;20458;-57
2024/01/21 06:07:03;;;;;;;1.75;1.40;;;19.10;25.80;;;;;;5094883;28;20331;-57
2024/01/21 06:09:29;;;;;;;1.70;1.40;;;19.10;25.80;;;;;;5095708;28;20350;-55
2024/01/21 06:11:55;;;;;;;1.45;1.35;;;19.10;25.80;;;;;;5095292;28;20028;-57
2024/01/21 06:14:20;;;;;;;1.65;1.30;;;19.10;25.80;;;;;;5094738;28;20016;-58
2024/01/21 06:16:46;;;;;;;2.15;1.30;;;19.10;25.80;;;;;;5093386;28;20050;-55
2024/01/21 06:19:12;;;;;;;2.15;1.58;;;19.10;25.80;;;;;;5095006;28;20123;-58
2024/01/21 06:21:43;;;;;;;1.33;1.10;;;19.10;25.80;;;;;;5094984;28;20035;-52
2024/01/21 06:24:09;;;;;;;1.83;1.30;;;19.10;25.70;;;;;;5094635;28;20046;-57
2024/01/21 06:26:37;;;;;;;1.20;0.90;;;19.20;25.80;;;;;;5094057;28;20024;-56
2024/01/21 06:29:04;;;;;;;1.63;1.27;;;19.20;25.80;;;;;;5094472;28;20028;-58
2024/01/21 06:31:30;;;;;;;3.03;1.35;;;19.20;25.80;;;;;;5074782;28;20051;-58
2024/01/21 06:33:56;;;;;;;1.50;1.27;;;19.20;25.80;;;;;;5094863;28;20032;-59
2024/01/21 06:36:25;;;;;;;1.50;1.20;;;19.20;25.80;;;;;;5076224;28;20048;-57
2024/01/21 06:38:51;;;;;;;1.77;1.50;;;19.20;25.70;;;;;;5094346;28;20027;-57
2024/01/21 06:41:17;;;;;;;1.45;1.20;;;19.20;25.70;;;;;;5094160;28;20039;-58
2024/01/21 06:43:43;;;;;;;1.70;1.30;;;19.20;25.70;;;;;;5093848;28;20047;-55
2024/01/21 06:46:09;;;;;;;1.92;1.50;;;19.20;25.70;;;;;;5094475;28;20028;-55
2024/01/21 06:48:35;;;;;;;1.80;1.20;;;19.20;25.70;;;;;;5093796;28;20032;-58
2024/01/21 06:51:08;;;;;;;1.67;1.50;;;19.20;25.70;;;;;;5094735;28;20054;-57
2024/01/21 06:53:34;;;;;;;1.95;1.40;;;19.20;25.70;;;;;;5092467;28;20035;-56
2024/01/21 06:56:04;;;;;;;1.77;1.23;;;19.20;25.70;;;;;;5094460;28;20024;-59
2024/01/21 06:58:30;;;;;;;2.30;1.60;;;19.20;25.70;;;;;;5093634;28;20036;-57
2024/01/21 07:00:56;;;;;;;2.33;1.73;;;19.20;25.70;;;;;;5093582;28;20427;-58
2024/01/21 07:03:22;;;;;;;2.20;1.50;;;19.20;25.70;;;;;;5093370;28;20046;-66
2024/01/21 07:05:47;;;;;;;1.60;1.30;;;19.20;25.70;;;;;;5094109;28;20039;-58
2024/01/21 07:08:13;;;;;;;1.75;1.45;;;19.20;25.70;;;;;;5075108;28;20344;-61
2024/01/21 07:10:39;;;;;;;2.25;1.50;;;19.20;25.70;;;;;;5091280;28;20028;-55
2024/01/21 07:13:05;;;;;;;1.55;1.10;;;19.20;25.70;;;;;;5093947;28;20028;-58
2024/01/21 07:15:31;;;;;;;1.95;1.50;;;19.20;25.70;;;;;;5092822;28;20093;-52
2024/01/21 07:17:56;;;;;;;2.55;1.60;;;19.30;25.70;;;;;;5093625;28;20107;-58
2024/01/21 07:20:22;;;;;;;1.92;1.65;;;19.20;26.20;;;;;;5093783;28;20024;-57
2024/01/21 07:22:48;;;;;;;1.92;1.40;;;19.30;25.70;;;;;;5093345;28;20115;-54
2024/01/21 07:25:14;;;;;;;1.45;1.30;;;19.30;25.70;;;;;;5093270;28;20031;-55
2024/01/21 07:27:42;;;;;;;1.77;1.50;;;19.20;25.70;;;;;;5092599;28;20042;-57
2024/01/21 07:30:10;;;;;;;1.70;1.40;;;19.30;25.70;;;;;;5091829;28;20040;-56
2024/01/21 07:32:38;;;;;;;1.85;1.40;;;19.30;25.70;;;;;;5093827;28;20035;-56
2024/01/21 07:35:04;;;;;;;4.43;1.45;;;19.30;25.70;;;;;;5093158;28;20034;-57
2024/01/21 07:37:30;;;;;;;2.00;1.50;;;19.20;25.70;;;;;;5092996;28;20063;-58
2024/01/21 07:39:55;;;;;;;2.22;1.60;;;19.30;25.70;;;;;;5092816;28;20068;-58
2024/01/21 07:42:28;;;;;;;1.92;1.40;;;19.20;25.70;;;;;;5092477;28;20107;-57
2024/01/21 07:44:54;;;;;;;2.58;1.70;;;19.20;25.70;;;;;;5090795;28;20134;-59
2024/01/21 07:47:19;;;;;;;2.22;1.70;;;19.30;25.70;;;;;;5093573;28;20034;-57
2024/01/21 07:49:46;;;;;;;2.60;1.52;;;19.20;25.70;;;;;;5093977;28;20120;-55
2024/01/21 07:52:16;;;;;;;1.83;1.42;;;19.20;25.70;;;;;;5073508;28;20081;-55
2024/01/21 07:54:43;;;;;;;2.75;1.75;;;19.30;25.70;;;;;;5086709;28;20028;-59
2024/01/21 07:57:09;;;;;;;2.60;1.73;;;19.30;25.70;;;;;;5093431;28;20024;-58
2024/01/21 07:59:35;;;;;;;1.85;1.50;;;19.20;25.60;;;;;;5092739;28;20043;-54
2024/01/21 08:02:01;;;;;;;2.28;1.48;;;19.30;25.60;;;;;;5092735;28;20366;-57
2024/01/21 08:04:27;;;;;;;2.90;1.80;;;19.30;25.60;;;;;;5075182;28;20042;-55
2024/01/21 08:06:53;;;;;;;2.35;1.50;;;19.30;25.60;;;;;;5092597;28;20477;-54
2024/01/21 08:09:19;;;;;;;2.17;1.65;;;19.30;25.60;;;;;;5093805;28;20086;-56
2024/01/21 08:11:44;;;;;;;2.85;1.73;;;19.20;25.50;;;;;;5075991;28;20097;-55
2024/01/21 08:14:11;;;;;;;1.95;1.40;;;19.30;25.60;;;;;;5094086;28;20082;-55
2024/01/21 08:16:37;;;;;;;3.10;1.92;;;19.30;25.50;;;;;;5093423;28;20043;-56
2024/01/21 08:19:04;;;;;;;2.65;1.83;;;19.30;25.50;;;;;;5094072;28;20024;-55
2024/01/21 08:21:30;;;;;;;4.07;1.73;;;19.30;25.50;;;;;;5092898;28;20161;-56
2024/01/21 08:23:56;;;;;;;3.03;2.05;;;19.30;25.50;;;;;;5093942;28;20114;-52
2024/01/21 08:26:21;;;;;;;2.25;1.45;;;19.30;25.40;;;;;;5092995;28;20553;-55
2024/01/21 08:28:47;;;;;;;2.97;1.60;;;19.20;25.40;;;;;;5089892;28;20447;-57
2024/01/21 08:31:14;;;;;;;2.00;1.58;;;19.30;25.40;;;;;;5091891;28;20113;-57
2024/01/21 08:33:40;;;;;;;3.30;1.67;;;19.30;25.50;;;;;;5093436;28;20028;-56
2024/01/21 08:36:07;;;;;;;2.83;1.70;;;19.30;25.50;;;;;;5093886;28;20035;-57
2024/01/21 08:38:33;;;;;;;2.47;1.58;;;19.30;25.50;;;;;;5093260;28;20447;-54
2024/01/21 08:40:59;;;;;;;2.78;1.45;;;19.30;25.40;;;;;;5080046;28;20045;-56
2024/01/21 08:43:25;;;;;;;3.38;1.63;;;19.30;25.40;;;;;;5073437;28;20047;-57
2024/01/21 08:45:51;;;;;;;2.70;1.77;;;19.30;25.40;;;;;;5072800;28;20017;-56
2024/01/21 08:48:17;;;;;;;2.38;1.63;;;19.30;25.40;;;;;;5073403;28;20329;-57
2024/01/21 08:50:42;;;;;;;2.00;1.60;;;19.30;25.40;;;;;;5073367;28;20033;-55
2024/01/21 08:53:08;;;;;;;1.98;1.55;;;19.40;25.40;;;;;;5074350;28;20029;-53
2024/01/21 08:55:34;;;;;;;3.13;1.70;;;19.40;25.40;;;;;;5074060;28;20028;-54
2024/01/21 08:58:02;;;;;;;3.38;1.60;;;19.50;25.40;;;;;;5073871;28;20038;-56
2024/01/21 09:00:28;;;;;;;2.05;1.50;;;19.50;25.50;;;;;;5073642;28;20074;-58
2024/01/21 09:02:53;;;;;;;1.73;1.20;;;19.50;25.50;;;;;;5073649;28;20029;-57
2024/01/21 09:05:19;;;;;;;2.15;1.45;;;19.60;25.50;;;;;;5074494;28;20033;-57
2024/01/21 09:07:45;;;;;;;3.67;1.58;;;19.70;25.50;;;;;;5055887;28;20085;-56
2024/01/21 09:10:12;;;;;;;2.28;1.58;;;19.70;25.50;;;;;;5074402;28;20435;-56
2024/01/21 09:12:38;;;;;;;1.85;1.20;;;19.80;25.50;;;;;;5055542;28;20107;-57
2024/01/21 09:15:05;;;;;;;2.78;1.52;;;19.90;25.50;;;;;;5065219;28;20020;-57
2024/01/21 09:17:32;;;;;;;2.78;1.73;;;19.90;25.50;;;;;;5071130;28;20032;-57
2024/01/21 09:19:58;;;;;;;2.92;1.60;;;20.00;25.60;;;;;;5072427;28;20046;-58
2024/01/21 09:22:24;;;;;;;2.92;1.73;;;20.10;25.70;;;;;;5072908;28;20038;-58
2024/01/21 09:24:50;;;;;;;2.65;1.45;;;20.10;25.70;;;;;;5073114;28;20045;-59
2024/01/21 09:27:16;;;;;;;2.38;1.58;;;20.20;25.70;;;;;;5074418;28;20025;-57
2024/01/21 09:29:43;;;;;;;2.63;1.88;;;20.30;25.70;;;;;;5070012;28;20147;-58
2024/01/21 09:32:11;;;;;;;3.72;1.63;;;20.40;25.70;;;;;;5078472;28;20036;-56
2024/01/21 09:34:40;;;;;;;2.10;1.50;;;20.40;25.60;;;;;;5077685;28;20124;-67
2024/01/21 09:37:06;;;;;;;2.03;1.00;;;20.40;25.70;;;;;;5072854;28;20033;-59
2024/01/21 09:39:32;;;;;;;1.52;0.90;;;20.50;25.90;;;;;;5082052;28;20116;-58
2024/01/21 09:41:59;;;;;;;1.08;0.90;;;20.40;26.00;;;;;;5091949;28;20070;-59
2024/01/21 09:44:27;;;;;;;1.55;1.08;;;20.50;26.10;;;;;;5118675;28;20039;-57
2024/01/21 09:46:58;;;;;;;1.73;1.13;;;20.50;26.10;;;;;;5118682;28;20051;-59
2024/01/21 09:49:25;;;;;;;1.98;1.35;;;20.60;26.00;;;;;;5100964;28;20031;-58
2024/01/21 09:51:52;;;;;;;1.23;1.00;;;20.70;26.00;;;;;;5118695;28;20039;-59
2024/01/21 09:54:19;;;;;;;2.00;1.25;;;20.70;25.90;;;;;;5118161;28;20163;-59
2024/01/21 09:56:45;;;;;;;1.40;1.10;;;20.80;25.80;;;;;;5118267;28;20028;-59
2024/01/21 09:59:12;;;;;;;1.63;1.10;;;20.80;25.70;;;;;;5118486;28;20057;-55
2024/01/21 10:01:40;;;;;;;1.55;1.10;;;20.90;25.70;;;;;;5118435;28;20027;-58
2024/01/21 10:04:09;;;;;;;1.67;1.20;;;21.00;25.70;;;;;;5118622;28;20122;-58
2024/01/21 10:06:35;;;;;;;3.40;1.65;;;21.00;25.70;;;;;;5100143;28;20042;-58
2024/01/21 10:09:21;;;;;;;2.10;1.30;;;21.00;25.70;;;;;;5117384;28;20180;-61
2024/01/21 10:11:54;;;;;;;2.55;1.23;;;21.10;25.70;;;;;;5117958;28;20080;-55
2024/01/21 10:14:20;;;;;;;2.22;1.30;;;21.10;25.80;;;;;;5100023;28;20366;-55
2024/01/21 10:16:47;;;;;;;1.77;1.05;;;21.20;25.90;;;;;;5118048;28;20024;-57
2024/01/21 10:19:16;;;;;;;1.88;1.30;;;21.20;25.90;;;;;;5118679;28;20042;-57
2024/01/21 10:21:42;;;;;;;1.60;1.20;;;21.20;25.90;;;;;;5117997;28;20035;-59
2024/01/21 10:24:10;;;;;;;1.77;1.17;;;21.30;26.00;;;;;;5117924;28;20367;-60
2024/01/21 10:26:41;;;;;;;1.17;1.00;;;21.30;26.00;;;;;;5098848;28;20036;-61
2024/01/21 10:29:08;;;;;;;2.05;1.40;;;21.30;26.00;;;;;;5106883;28;20027;-63
2024/01/21 10:31:35;;;;;;;1.42;1.17;;;21.30;26.10;;;;;;5107129;28;20106;-62
2024/01/21 10:34:07;;;;;;;2.40;1.52;;;21.30;26.10;;;;;;5115619;28;20429;-62
2024/01/21 10:36:34;;;;;;;2.80;1.63;;;21.40;26.80;;;;;;5117807;27;20024;-65
2024/01/21 10:39:06;;;;;;;2.80;1.25;;;21.40;26.60;;;;;;5115657;28;20431;-62
2024/01/21 10:41:34;;;;;;;2.30;1.70;;;21.40;26.80;;;;;;5105427;28;20051;-63
2024/01/21 10:44:10;;;;;;;2.17;1.17;;;21.40;27.00;;;;;;5113490;28;20531;-64
2024/01/21 10:46:40;;;;;;;1.70;1.10;;;21.40;27.20;;;;;;5114942;28;20051;-62
2024/01/21 10:49:08;;;;;;;1.88;1.10;;;21.40;27.40;;;;;;5131349;27;20027;-63
2024/01/21 10:51:34;;;;;;;1.13;0.90;;;21.40;27.50;;;;;;5114766;28;20024;-59
2024/01/21 10:54:00;;;;;;;1.55;0.90;;;21.30;27.40;;;;;;5116277;28;20019;-62
2024/01/21 10:56:26;;;;;;;1.45;0.88;;;21.20;27.40;;;;;;5115693;28;20051;-62
2024/01/21 10:58:53;;;;;;;0.60;0.60;;;21.10;27.40;;;;;;5116096;28;20430;-62
2024/01/21 11:01:20;;;;;;;0.98;0.80;;;21.10;27.40;;;;;;5115331;28;20098;-64
2024/01/21 11:03:52;;;;;;;2.38;0.70;;;21.00;27.40;;;;;;5097734;28;20073;-60
2024/01/21 11:06:18;;;;;;;0.98;0.77;;;20.90;27.40;;;;;;5115226;28;20442;-61
2024/01/21 11:08:48;;;;;;;2.10;0.80;;;20.90;27.50;;;;;;5112713;28;20024;-62
2024/01/21 11:11:16;;;;;;;1.95;0.70;;;20.80;27.50;;;;;;5115325;28;20023;-63
2024/01/21 11:13:46;;;;;;;0.98;0.77;;;20.80;27.60;;;;;;5115675;28;20051;-60
2024/01/21 11:16:31;;;;;;;1.25;0.80;;;20.70;27.60;;;;;;5116851;27;20042;-59
2024/01/21 11:18:58;;;;;;;4.10;2.40;;;20.60;27.50;;;;;;5113734;28;20035;-62
2024/01/21 11:21:25;;;;;;;6.20;3.00;;;20.60;27.90;;;;;;5115321;28;20062;-60
2024/01/21 11:24:05;;;;;;;5.85;3.13;;;20.60;28.70;;;;;;5115054;28;20446;-61
2024/01/21 11:26:35;;;;;;;7.25;3.33;;;20.50;29.50;;;;;;5114667;28;20041;-61
2024/01/21 11:29:05;;;;;;;7.68;3.60;;;20.50;29.90;;;;;;5115180;28;20443;-63
2024/01/21 11:31:32;;;;;;;7.50;4.20;;;20.50;30.40;;;;;;5115392;28;20023;-62
2024/01/21 11:34:05;;;;;;;6.05;3.65;;;20.50;30.90;;;;;;5112445;28;20065;-62
2024/01/21 11:36:33;;;;;;;6.05;2.88;;;20.50;31.10;;;;;;5093649;28;20136;-64
2024/01/21 11:39:00;;;;;;;5.47;3.22;;;20.50;31.30;;;;;;5111322;28;20038;-61
2024/01/21 11:41:41;;;;;;;3.88;2.42;;;20.50;31.40;;;;;;5112003;28;20063;-63
2024/01/21 11:44:21;;;;;;;4.53;2.47;;;20.60;31.40;;;;;;5112938;28;20134;-60
2024/01/21 11:46:47;;;;;;;6.28;4.50;;;20.60;31.40;;;;;;5112548;28;20106;-61
2024/01/21 11:49:13;;;;;;;7.68;4.47;;;20.60;31.40;;;;;;5115126;28;20027;-62
2024/01/21 11:51:40;;;;;;;5.38;3.90;;;20.60;31.40;;;;;;5113594;28;20023;-59
2024/01/21 11:54:07;;;;;;;5.63;3.63;;;20.60;31.20;;;;;;5114538;28;20036;-59
2024/01/21 11:56:35;;;;;;;4.70;2.85;;;20.60;30.90;;;;;;5114500;28;20045;-60
2024/01/21 11:59:01;;;;;;;4.85;2.65;;;20.60;30.60;;;;;;5114978;28;20028;-60
2024/01/21 12:01:27;;;;;;;5.32;2.47;;;20.60;30.40;;;;;;5114580;28;20146;-59
2024/01/21 12:03:54;;;;;;;4.65;2.78;;;20.60;30.20;;;;;;5114851;28;20032;-60
2024/01/21 12:06:21;;;;;;;4.20;2.22;;;20.60;30.10;;;;;;5114368;28;20446;-60
2024/01/21 12:08:47;;;;;;;3.13;1.88;;;20.60;30.00;;;;;;5114598;28;20520;-60
2024/01/21 12:11:13;;;;;;;3.13;1.90;;;20.50;29.90;;;;;;5114097;28;20030;-60
2024/01/21 12:13:40;;;;;;;3.13;1.92;;;20.50;29.90;;;;;;5114138;28;20023;-58
2024/01/21 12:16:10;;;;;;;3.20;1.80;;;20.50;29.80;;;;;;5114173;28;20103;-60
2024/01/21 12:18:40;;;;;;;2.70;1.60;;;20.50;29.70;;;;;;5114170;28;20655;-60
2024/01/21 12:21:07;;;;;;;3.00;2.00;;;20.50;29.60;;;;;;5112237;28;20088;-58
2024/01/21 12:23:33;;;;;;;2.78;1.70;;;20.50;29.60;;;;;;5113655;28;20442;-60
2024/01/21 12:25:59;;;;;;;2.53;1.70;;;20.50;29.50;;;;;;5114108;28;20050;-56
2024/01/21 12:28:25;;;;;;;2.72;1.60;;;20.40;29.40;;;;;;5096899;28;20458;-60
2024/01/21 12:30:54;;;;;;;2.38;1.58;;;20.50;29.40;;;;;;5094573;28;20027;-58
2024/01/21 12:33:20;;;;;;;3.08;1.70;;;20.50;29.40;;;;;;5088367;28;20431;-59
2024/01/21 12:35:47;;;;;;;2.25;1.58;;;20.50;29.30;;;;;;5078684;28;20043;-60
2024/01/21 12:38:16;;;;;;;3.63;1.90;;;20.50;29.20;;;;;;5114795;28;20027;-60
2024/01/21 12:40:44;;;;;;;2.47;1.60;;;20.50;29.20;;;;;;5114885;28;20043;-60
2024/01/21 12:43:10;;;;;;;2.40;1.42;;;20.50;29.20;;;;;;5114643;28;20027;-61
2024/01/21 12:45:36;;;;;;;1.92;1.45;;;20.40;29.20;;;;;;5114830;28;20115;-61